ENZV/SVG METAR and TAF weather

Enter ICAO airport designator
Station Type Date Time Source
ENZV METAR 2018/01/19 17:20 UTC NOAA

ENZV 191720Z 08006KT 1000 +SN VV006 00/M00 Q0997 TEMPO 3000 -SHSN BKN012CB


Station Type Date Time Source
ENZV Decoded METAR 2018/01/19 17:20 UTC NOAA

Stavanger / Sola, Norway (ENZV) 58-53N 005-38E 9M
Jan 19, 2018 - 12:20 PM EST / 2018.01.19 1720 UTC
Wind: from the E (080 degrees) at 7 MPH (6 KT):0
Visibility: less than 1 mile:0
Sky conditions: obscured
Weather: heavy snow; Cumulonimbus clouds observed
Temperature: 32 F (0 C)
Windchill: 24 F (-4 C):1
Dew Point: 32 F (0 C)
Relative Humidity: 100%
Pressure (altimeter): 29.44 in. Hg (0997 hPa)
ob: ENZV 191720Z 08006KT 1000 +SN VV006 00/M00 Q0997 TEMPO 3000 -SHSN BKN012CB
cycle: 17

Station Type Date Time Source
ENZV TAF 2018/01/19 12:59 UTC NOAA

TAF ENZV 191100Z 1912/2012 14008KT 9999 FEW010TCU BKN030
TEMPO 1912/2012 15018KT 0900 SHSNGS VV007
TEMPO 1912/2006 BKN012CB PROB30
TEMPO 1912/2012 TS


Example: see airport list